Main page
METAR-TAF:

METAR-TAF

Airports :

Kaunas Airport

Kaunas, Lithuania

latitude: 54-54N, longitude: 023-55-12E, elevation: 77 m

Current weather observation

The report was made 30 minutes ago, at 04:20 UTC
Wind 4 kt from the East/Southeast
Temperature 10°C
Humidity 82%
Pressure 1007 hPa
Visibility 10 km or more
no clouds below 1500 m and no cumulonimbus

METAR: EYKA 240420Z 12004KT CAVOK 10/07 Q1007

Time: 07:50 (04:50 UTC)

Forecast

The report was made 5 hours and 50 minutes ago, at 23:00 UTC
Forecast valid from 24 at 00 UTC to 24 at 24 UTC
Wind 6 kt from the East/Southeast
Visibility: 9000 m
Temporary
from 24 at 10 UTC to 24 at 15 UTC
Wind 10 kt from the South
Temporary
from 24 at 19 UTC to 24 at 23 UTC
Broken clouds at a height of 4500 ft, Cumulonimbus.

TAF: EYKA 232300Z 2400/2424 12006KT 9000 NSC TEMPO 2410/2415 18010KT TEMPO 2419/2423 BKN045CB

Weather observations and forecasts of more than 4000 airports (METAR and TAF reports).

The available stations are represented by yellow and red dots on the map.

Hover mouse over dot to see the name of the station.

Then click to see weather observations and forecasts.

To change the map : click on the green buttons with a black cross to zoom in, on the green button with a dash to zoom out, or on the green arrows for adjacent maps.


METAR-TAF: